createdAt,value
2018-06-17T00:00:43.934Z,94.80
2018-06-17T00:03:12.105Z,94.80
2018-06-17T00:05:40.272Z,95.00
2018-06-17T00:08:08.433Z,95.00
2018-06-17T00:10:36.804Z,94.90
2018-06-17T00:13:04.968Z,94.80
2018-06-17T00:15:33.117Z,94.90
2018-06-17T00:18:01.272Z,94.90
2018-06-17T00:20:29.477Z,95.00
2018-06-17T00:22:57.623Z,94.80
2018-06-17T00:25:25.763Z,94.70
2018-06-17T00:27:53.991Z,94.70
2018-06-17T00:30:22.179Z,94.80
2018-06-17T00:32:50.343Z,94.70
2018-06-17T00:35:18.492Z,94.90
2018-06-17T00:37:46.648Z,94.90
2018-06-17T00:40:14.811Z,94.90
2018-06-17T00:42:43.036Z,94.90
2018-06-17T00:45:11.188Z,94.80
2018-06-17T00:47:39.354Z,94.80
2018-06-17T00:50:07.564Z,94.90
2018-06-17T00:52:35.684Z,95.00
2018-06-17T00:55:03.840Z,94.90
2018-06-17T00:57:45.268Z,94.90
2018-06-17T01:00:13.408Z,94.90
2018-06-17T01:02:41.696Z,95.00
2018-06-17T01:05:09.857Z,95.20
2018-06-17T01:07:38.112Z,95.10
2018-06-17T01:10:06.373Z,95.10
2018-06-17T01:12:34.534Z,95.10
2018-06-17T01:15:02.689Z,95.00
2018-06-17T01:19:58.772Z,95.20
2018-06-17T01:22:26.932Z,95.00
2018-06-17T01:24:55.094Z,94.80
2018-06-17T01:27:23.292Z,94.80
2018-06-17T01:29:51.440Z,94.80
2018-06-17T01:32:19.607Z,94.80
2018-06-17T01:34:47.759Z,94.80
2018-06-17T01:37:16.016Z,94.70
2018-06-17T01:39:44.241Z,94.60
2018-06-17T01:42:12.431Z,94.60
2018-06-17T01:44:40.648Z,94.50
2018-06-17T01:47:08.810Z,94.60
2018-06-17T01:49:37.025Z,94.70
2018-06-17T01:52:05.204Z,94.80
2018-06-17T01:54:33.361Z,94.90
2018-06-17T01:59:29.520Z,95.00
2018-06-17T02:01:57.726Z,94.90
2018-06-17T02:04:31.305Z,94.90
2018-06-17T02:07:04.938Z,94.90
2018-06-17T02:09:38.540Z,94.90
2018-06-17T02:12:12.291Z,95.00
2018-06-17T02:14:45.804Z,94.90
2018-06-17T02:17:14.047Z,95.00
2018-06-17T02:19:42.203Z,95.10
2018-06-17T02:22:10.367Z,95.30
2018-06-17T02:24:38.527Z,95.30
2018-06-17T02:27:06.679Z,95.10
2018-06-17T02:29:34.945Z,95.00
2018-06-17T02:32:03.273Z,94.90
2018-06-17T02:34:31.501Z,94.90
2018-06-17T02:36:59.730Z,95.10
2018-06-17T02:39:27.942Z,94.90
2018-06-17T02:41:56.558Z,94.90
2018-06-17T02:44:24.726Z,94.90
2018-06-17T02:46:58.329Z,94.80
2018-06-17T02:49:32.113Z,94.80
2018-06-17T02:52:05.771Z,94.70
2018-06-17T02:54:39.216Z,94.70
2018-06-17T02:57:08.868Z,94.70
2018-06-17T02:59:37.098Z,94.70
2018-06-17T03:02:05.285Z,95.00
2018-06-17T03:04:33.528Z,94.60
2018-06-17T03:07:01.701Z,94.60
2018-06-17T03:09:29.860Z,94.50
2018-06-17T03:11:58.036Z,94.40
2018-06-17T03:14:26.753Z,94.40
2018-06-17T03:16:55.028Z,94.40
2018-06-17T03:19:23.564Z,94.40
2018-06-17T03:21:51.719Z,94.50
2018-06-17T03:24:24.184Z,94.50
2018-06-17T03:26:57.835Z,94.40
2018-06-17T03:29:31.418Z,94.40
2018-06-17T03:32:04.991Z,94.30
2018-06-17T03:34:33.151Z,94.20
2018-06-17T03:37:01.328Z,94.30
2018-06-17T03:39:29.534Z,94.30
2018-06-17T03:41:57.700Z,94.40
2018-06-17T03:44:25.864Z,94.20
2018-06-17T03:46:54.013Z,94.40
2018-06-17T03:49:22.189Z,94.10
2018-06-17T03:51:50.336Z,94.10
2018-06-17T03:54:18.512Z,94.10
2018-06-17T03:57:03.667Z,94.00
2018-06-17T03:59:31.833Z,94.00
2018-06-17T04:01:59.988Z,94.00
2018-06-17T04:04:28.209Z,93.90
2018-06-17T04:06:56.421Z,94.00
2018-06-17T04:09:24.599Z,94.00
2018-06-17T04:11:52.779Z,93.90
2018-06-17T04:14:20.959Z,93.90
2018-06-17T04:16:49.136Z,94.00
2018-06-17T04:21:45.286Z,93.90
2018-06-17T04:24:13.532Z,94.00
2018-06-17T04:26:41.725Z,94.00
2018-06-17T04:29:09.944Z,93.90
2018-06-17T04:31:38.182Z,94.00
2018-06-17T04:34:06.379Z,94.00
2018-06-17T04:36:34.627Z,94.00
2018-06-17T04:39:02.872Z,94.00
2018-06-17T04:41:31.223Z,94.00
2018-06-17T04:43:59.463Z,94.00
2018-06-17T04:46:27.620Z,94.00
2018-06-17T04:48:55.805Z,94.00
2018-06-17T04:51:24.002Z,94.10
2018-06-17T04:53:52.264Z,94.10
2018-06-17T04:56:20.557Z,94.00
2018-06-17T04:58:48.811Z,94.10
2018-06-17T05:01:16.980Z,94.00
2018-06-17T05:03:45.208Z,94.00
2018-06-17T05:06:13.441Z,94.00
2018-06-17T05:08:41.709Z,94.20
2018-06-17T05:11:09.884Z,94.00
2018-06-17T05:13:38.048Z,94.00
2018-06-17T05:16:06.228Z,94.10
2018-06-17T05:18:34.514Z,94.00
2018-06-17T05:21:02.832Z,94.10
2018-06-17T05:23:31.056Z,94.20
2018-06-17T05:25:59.421Z,94.20
2018-06-17T05:28:27.684Z,94.20
2018-06-17T05:30:55.875Z,94.30
2018-06-17T05:33:24.053Z,94.20
2018-06-17T05:35:52.320Z,94.20
2018-06-17T05:38:20.520Z,94.30
2018-06-17T05:40:48.783Z,94.20
2018-06-17T05:43:17.595Z,94.30
2018-06-17T05:45:45.915Z,94.20
2018-06-17T05:48:14.115Z,94.20
2018-06-17T05:50:42.401Z,93.90
2018-06-17T05:53:11.263Z,93.90
2018-06-17T05:55:39.510Z,93.70
2018-06-17T05:58:08.340Z,93.50
2018-06-17T06:00:36.547Z,93.70
2018-06-17T06:03:04.784Z,93.60
2018-06-17T06:08:00.974Z,93.50
2018-06-17T06:10:29.392Z,93.60
2018-06-17T06:12:57.671Z,93.50
2018-06-17T06:15:25.877Z,93.10
2018-06-17T06:17:54.140Z,93.20
2018-06-17T06:20:22.664Z,93.10
2018-06-17T06:22:50.889Z,92.90
2018-06-17T06:25:19.071Z,93.20
2018-06-17T06:27:47.234Z,93.20
2018-06-17T06:30:15.505Z,93.40
2018-06-17T06:32:43.698Z,93.30
2018-06-17T06:35:11.972Z,92.80
2018-06-17T06:37:40.569Z,93.10
2018-06-17T06:40:08.860Z,93.20
2018-06-17T06:42:37.092Z,93.10
2018-06-17T06:45:05.559Z,92.90
2018-06-17T06:47:33.742Z,92.80
2018-06-17T06:50:01.980Z,92.80
2018-06-17T06:52:30.070Z,92.50
2018-06-17T06:54:58.291Z,92.30
2018-06-17T06:57:26.603Z,92.20
2018-06-17T06:59:54.740Z,92.00
2018-06-17T07:02:34.115Z,91.90
2018-06-17T07:05:13.651Z,91.70
2018-06-17T07:10:00.195Z,91.50
2018-06-17T07:12:28.372Z,91.20
2018-06-17T07:14:56.708Z,91.30
2018-06-17T07:17:36.206Z,91.30
2018-06-17T07:20:04.380Z,91.00
2018-06-17T07:22:32.557Z,91.10
2018-06-17T07:25:00.909Z,91.10
2018-06-17T07:27:40.361Z,91.20
2018-06-17T07:30:08.535Z,91.50
2018-06-17T07:32:36.765Z,90.80
2018-06-17T07:35:04.976Z,90.70
2018-06-17T07:37:33.147Z,90.40
2018-06-17T07:41:03.717Z,90.90
2018-06-17T07:43:31.920Z,90.70
2018-06-17T07:46:00.162Z,90.60
2018-06-17T07:49:45.530Z,90.30
2018-06-17T07:52:26.061Z,90.40
2018-06-17T07:54:54.346Z,90.00
2018-06-17T07:57:23.796Z,88.90
2018-06-17T07:59:52.033Z,90.00
2018-06-17T08:02:20.215Z,90.20
2018-06-17T08:04:48.401Z,89.80
2018-06-17T08:07:16.791Z,89.50
2018-06-17T08:09:45.040Z,90.00
2018-06-17T08:12:13.472Z,90.10
2018-06-17T08:14:41.867Z,89.50
2018-06-17T08:17:10.100Z,89.90
2018-06-17T08:19:38.583Z,90.00
2018-06-17T08:22:06.837Z,89.20
2018-06-17T08:24:35.453Z,89.70
2018-06-17T08:27:03.772Z,89.60
2018-06-17T08:29:32.532Z,89.90
2018-06-17T08:32:00.749Z,90.00
2018-06-17T08:34:28.919Z,88.80
2018-06-17T08:36:57.120Z,87.90
2018-06-17T08:39:25.636Z,88.70
2018-06-17T08:41:53.917Z,87.00
2018-06-17T08:44:22.408Z,87.30
2018-06-17T08:46:51.065Z,87.10
2018-06-17T08:49:19.890Z,86.70
2018-06-17T08:51:48.093Z,85.80
2018-06-17T08:54:16.414Z,86.40
2018-06-17T08:56:44.644Z,86.10
2018-06-17T08:59:12.889Z,85.30
2018-06-17T09:01:41.269Z,86.60
2018-06-17T09:04:09.565Z,85.30
2018-06-17T09:06:37.777Z,85.40
2018-06-17T09:09:08.672Z,85.40
2018-06-17T09:11:37.041Z,85.30
2018-06-17T09:14:05.237Z,85.30
2018-06-17T09:16:33.418Z,84.60
2018-06-17T09:19:01.772Z,85.50
2018-06-17T09:21:30.132Z,85.70
2018-06-17T09:23:58.432Z,86.00
2018-06-17T09:26:26.622Z,86.20
2018-06-17T09:28:54.948Z,86.30
2018-06-17T09:31:23.243Z,86.60
2018-06-17T09:33:51.428Z,86.90
2018-06-17T09:36:19.611Z,87.10
2018-06-17T09:38:47.785Z,87.20
2018-06-17T09:41:16.052Z,88.30
2018-06-17T09:43:44.469Z,88.30
2018-06-17T09:46:12.699Z,87.60
2018-06-17T09:48:40.909Z,86.40
2018-06-17T09:51:09.160Z,85.50
2018-06-17T09:53:37.441Z,86.00
2018-06-17T09:56:05.792Z,86.80
2018-06-17T09:58:34.126Z,86.20
2018-06-17T10:01:02.268Z,85.60
2018-06-17T10:03:30.444Z,84.90
2018-06-17T10:05:58.605Z,85.00
2018-06-17T10:08:26.780Z,84.90
2018-06-17T10:10:56.940Z,84.70
2018-06-17T10:13:26.368Z,84.70
2018-06-17T10:15:54.719Z,84.80
2018-06-17T10:18:23.525Z,84.90
2018-06-17T10:20:51.779Z,84.40
2018-06-17T10:23:21.374Z,83.60
2018-06-17T10:25:49.700Z,83.40
2018-06-17T10:28:21.454Z,82.80
2018-06-17T10:30:51.316Z,82.70
2018-06-17T10:33:20.565Z,81.90
2018-06-17T10:35:49.983Z,82.10
2018-06-17T10:38:24.633Z,82.60
2018-06-17T10:40:54.494Z,83.60
2018-06-17T10:43:25.734Z,84.20
2018-06-17T10:45:55.576Z,84.10
2018-06-17T10:48:25.032Z,84.80
2018-06-17T10:50:53.287Z,83.70
2018-06-17T10:53:22.902Z,83.60
2018-06-17T10:55:52.500Z,84.00
2018-06-17T10:58:22.841Z,83.90
2018-06-17T11:00:52.302Z,83.30
2018-06-17T11:03:22.775Z,82.60
2018-06-17T11:05:51.086Z,83.00
2018-06-17T11:08:19.405Z,83.40
2018-06-17T11:10:48.026Z,83.30
2018-06-17T11:13:17.374Z,83.80
2018-06-17T11:15:47.029Z,84.10
2018-06-17T11:18:15.290Z,84.30
2018-06-17T11:20:44.070Z,83.80
2018-06-17T11:23:13.123Z,83.60
2018-06-17T11:25:42.442Z,84.80
2018-06-17T11:28:10.707Z,85.10
2018-06-17T11:30:38.890Z,84.30
2018-06-17T11:33:08.016Z,83.70
2018-06-17T11:35:36.214Z,84.00
2018-06-17T11:38:05.880Z,84.20
2018-06-17T11:40:35.380Z,84.50
2018-06-17T11:43:04.496Z,83.80
2018-06-17T11:45:33.908Z,83.60
2018-06-17T11:48:02.664Z,84.10
2018-06-17T11:50:31.550Z,84.60
2018-06-17T11:53:00.982Z,83.20
2018-06-17T11:55:29.187Z,82.20
2018-06-17T11:57:57.391Z,81.80
2018-06-17T12:00:25.745Z,81.60
2018-06-17T12:02:53.953Z,82.00
2018-06-17T12:05:22.104Z,81.10
2018-06-17T12:07:50.476Z,80.90
2018-06-17T12:10:18.669Z,80.60
2018-06-17T12:12:47.625Z,80.80
2018-06-17T12:15:16.808Z,80.60
2018-06-17T12:17:46.344Z,81.40
2018-06-17T12:20:15.486Z,81.60
2018-06-17T12:22:43.711Z,81.90
2018-06-17T12:25:12.012Z,81.30
2018-06-17T12:27:40.165Z,81.30
2018-06-17T12:30:08.661Z,81.80
2018-06-17T12:32:37.615Z,82.50
2018-06-17T12:35:06.586Z,84.00
2018-06-17T12:37:35.785Z,82.10
2018-06-17T12:40:05.053Z,81.00
2018-06-17T12:42:34.446Z,80.40
2018-06-17T12:45:03.447Z,80.00
2018-06-17T12:47:32.453Z,80.80
2018-06-17T12:50:01.665Z,79.70
2018-06-17T12:52:30.778Z,80.00
2018-06-17T12:55:00.604Z,80.30
2018-06-17T12:57:29.558Z,80.30
2018-06-17T12:59:58.673Z,80.10
2018-06-17T13:02:27.698Z,80.70
2018-06-17T13:04:56.843Z,79.60
2018-06-17T13:07:26.179Z,79.30
2018-06-17T13:09:54.565Z,80.70
2018-06-17T13:12:25.616Z,80.40
2018-06-17T13:14:54.891Z,81.10
2018-06-17T13:17:24.553Z,81.60
2018-06-17T13:19:53.837Z,81.40
2018-06-17T13:22:23.228Z,82.10
2018-06-17T13:24:53.272Z,81.40
2018-06-17T13:27:22.602Z,79.80
2018-06-17T13:29:50.961Z,80.10
2018-06-17T13:32:19.148Z,80.50
2018-06-17T13:34:47.497Z,80.30
2018-06-17T13:37:15.700Z,80.20
2018-06-17T13:39:44.004Z,80.20
2018-06-17T13:42:12.204Z,80.50
2018-06-17T13:44:40.366Z,80.70
2018-06-17T13:47:08.545Z,80.40
2018-06-17T13:49:36.697Z,80.60
2018-06-17T13:52:04.855Z,80.00
2018-06-17T13:54:33.037Z,80.40
2018-06-17T13:57:01.224Z,80.00
2018-06-17T13:59:29.432Z,79.20
2018-06-17T14:01:57.587Z,79.20
2018-06-17T14:07:08.437Z,78.80
2018-06-17T14:09:37.235Z,78.90
2018-06-17T14:12:06.273Z,77.80
2018-06-17T14:14:34.758Z,78.10
2018-06-17T14:17:04.529Z,78.30
2018-06-17T14:19:34.093Z,78.80
2018-06-17T14:22:02.274Z,77.70
2018-06-17T14:24:31.046Z,77.60
2018-06-17T14:26:59.200Z,78.00
2018-06-17T14:29:27.449Z,77.80
2018-06-17T14:31:57.356Z,76.70
2018-06-17T14:34:25.756Z,77.10
2018-06-17T14:36:54.484Z,78.10
2018-06-17T14:39:22.940Z,77.90
2018-06-17T14:41:56.444Z,77.00
2018-06-17T14:44:30.067Z,77.70
2018-06-17T14:47:03.716Z,77.40
2018-06-17T14:49:37.364Z,77.50
2018-06-17T14:52:11.180Z,77.00
2018-06-17T14:54:39.949Z,76.80
2018-06-17T14:57:08.254Z,75.00
2018-06-17T14:59:36.537Z,75.20
2018-06-17T15:02:04.813Z,76.00
2018-06-17T15:04:33.062Z,75.50
2018-06-17T15:07:01.212Z,76.00
2018-06-17T15:09:29.511Z,76.40
2018-06-17T15:11:57.740Z,76.10
2018-06-17T15:14:25.911Z,76.20
2018-06-17T15:16:54.072Z,75.00
2018-06-17T15:19:22.298Z,75.50
2018-06-17T15:21:50.514Z,75.30
2018-06-17T15:24:18.673Z,75.10
2018-06-17T15:26:47.644Z,74.40
2018-06-17T15:29:15.800Z,75.00
2018-06-17T15:31:49.201Z,75.60
2018-06-17T15:34:22.775Z,75.10
2018-06-17T15:36:56.361Z,74.50
2018-06-17T15:39:29.851Z,74.30
2018-06-17T15:41:57.981Z,73.40
2018-06-17T15:44:26.452Z,74.50
2018-06-17T15:46:54.659Z,73.50
2018-06-17T15:49:23.516Z,72.80
2018-06-17T15:51:51.707Z,73.50
2018-06-17T15:54:20.061Z,74.10
2018-06-17T15:56:48.241Z,73.60
2018-06-17T15:59:16.497Z,74.50
2018-06-17T16:01:44.661Z,74.80
2018-06-17T16:04:13.016Z,74.10
2018-06-17T16:06:41.177Z,73.50
2018-06-17T16:09:10.674Z,74.50
2018-06-17T16:11:44.157Z,74.60
2018-06-17T16:14:17.780Z,74.10
2018-06-17T16:16:51.239Z,74.70
2018-06-17T16:19:24.858Z,74.00
2018-06-17T16:21:53.962Z,72.40
2018-06-17T16:24:22.128Z,73.60
2018-06-17T16:26:50.293Z,72.30
2018-06-17T16:29:18.463Z,73.40
2018-06-17T16:31:46.630Z,74.20
2018-06-17T16:34:14.777Z,75.40
2018-06-17T16:36:43.045Z,74.20
2018-06-17T16:39:12.591Z,73.50
2018-06-17T16:41:41.210Z,70.90
2018-06-17T16:44:10.181Z,69.70
2018-06-17T16:46:38.751Z,69.40
2018-06-17T16:49:07.216Z,68.80
2018-06-17T16:51:40.938Z,68.60
2018-06-17T16:54:14.480Z,69.60
2018-06-17T16:56:48.147Z,70.60
2018-06-17T16:59:21.709Z,70.70
2018-06-17T17:01:50.466Z,72.10
2018-06-17T17:04:18.667Z,72.30
2018-06-17T17:06:46.921Z,72.10
2018-06-17T17:09:15.079Z,72.00
2018-06-17T17:11:43.240Z,71.10
2018-06-17T17:14:12.125Z,68.60
2018-06-17T17:16:40.907Z,63.90
2018-06-17T17:19:09.096Z,62.80
2018-06-17T17:21:37.267Z,63.60
2018-06-17T17:24:05.705Z,64.50
2018-06-17T17:26:34.736Z,66.30
2018-06-17T17:29:02.900Z,67.50
2018-06-17T17:31:36.443Z,68.10
2018-06-17T17:36:10.969Z,69.10
2018-06-17T17:38:44.568Z,70.80
2018-06-17T17:41:12.716Z,72.70
2018-06-17T17:43:40.936Z,72.50
2018-06-17T17:46:14.413Z,73.50
2018-06-17T17:48:42.572Z,71.60
2018-06-17T17:51:10.737Z,70.60
2018-06-17T17:53:38.905Z,70.80
2018-06-17T17:56:07.081Z,70.50
2018-06-17T17:58:35.234Z,71.00
2018-06-17T18:01:03.407Z,70.60
2018-06-17T18:03:31.648Z,71.10
2018-06-17T18:06:00.541Z,71.90
2018-06-17T18:08:28.772Z,72.30
2018-06-17T18:10:56.919Z,72.90
2018-06-17T18:13:25.249Z,73.70
2018-06-17T18:15:54.793Z,74.90
2018-06-17T18:18:22.956Z,75.60
2018-06-17T18:20:51.136Z,75.70
2018-06-17T18:23:19.317Z,76.60
2018-06-17T18:25:52.780Z,76.70
2018-06-17T18:28:26.277Z,77.10
2018-06-17T18:30:56.737Z,77.10
2018-06-17T18:33:30.148Z,77.60
2018-06-17T18:36:03.793Z,77.90
2018-06-17T18:38:31.965Z,78.40
2018-06-17T18:41:00.217Z,78.50
2018-06-17T18:43:28.392Z,78.50
2018-06-17T18:45:56.677Z,78.70
2018-06-17T18:48:25.496Z,79.00
2018-06-17T18:50:53.779Z,78.80
2018-06-17T18:53:24.133Z,79.40
2018-06-17T18:55:52.356Z,79.70
2018-06-17T18:58:20.792Z,80.40
2018-06-17T19:00:50.922Z,80.60
2018-06-17T19:03:19.397Z,81.10
2018-06-17T19:05:48.117Z,81.10
2018-06-17T19:08:21.731Z,81.20
2018-06-17T19:10:55.254Z,81.60
2018-06-17T19:13:28.840Z,81.90
2018-06-17T19:16:03.252Z,82.10
2018-06-17T19:18:31.970Z,82.90
2018-06-17T19:21:00.194Z,83.20
2018-06-17T19:23:28.652Z,83.50
2018-06-17T19:25:56.803Z,83.20
2018-06-17T19:28:24.963Z,83.50
2018-06-17T19:30:53.134Z,83.30
2018-06-17T19:33:21.304Z,84.00
2018-06-17T19:35:49.451Z,83.60
2018-06-17T19:38:17.620Z,83.90
2018-06-17T19:40:45.860Z,83.90
2018-06-17T19:43:13.964Z,84.30
2018-06-17T19:45:42.131Z,84.50
2018-06-17T19:48:10.337Z,84.60
2018-06-17T19:50:43.897Z,85.00
2018-06-17T19:53:17.396Z,84.60
2018-06-17T19:55:51.076Z,84.90
2018-06-17T19:58:24.830Z,85.30
2018-06-17T20:00:55.902Z,85.00
2018-06-17T20:03:24.166Z,85.20
2018-06-17T20:05:52.332Z,85.40
2018-06-17T20:08:20.572Z,85.60
2018-06-17T20:10:48.872Z,85.80
2018-06-17T20:13:17.089Z,85.90
2018-06-17T20:15:45.434Z,86.10
2018-06-17T20:18:13.600Z,86.50
2018-06-17T20:23:09.811Z,86.90
2018-06-17T20:25:39.061Z,87.40
2018-06-17T20:28:07.228Z,87.20
2018-06-17T20:30:35.419Z,87.40
2018-06-17T20:33:09.055Z,87.40
2018-06-17T20:35:42.597Z,87.50
2018-06-17T20:38:16.248Z,87.80
2018-06-17T20:40:49.985Z,88.20
2018-06-17T20:44:22.073Z,88.20
2018-06-17T20:46:50.243Z,88.20
2018-06-17T20:49:18.416Z,88.60
2018-06-17T20:51:46.631Z,88.60
2018-06-17T20:54:14.840Z,88.70
2018-06-17T20:56:43.100Z,89.20
2018-06-17T20:59:11.379Z,90.00
2018-06-17T21:01:39.720Z,89.50
2018-06-17T21:04:07.913Z,89.70
2018-06-17T21:06:36.135Z,90.00
2018-06-17T21:09:06.033Z,90.40
2018-06-17T21:11:34.201Z,90.10
2018-06-17T21:14:02.375Z,90.10
2018-06-17T21:16:30.573Z,90.30
2018-06-17T21:21:11.160Z,90.30
2018-06-17T21:23:44.831Z,90.50
2018-06-17T21:26:18.469Z,90.80
2018-06-17T21:28:46.767Z,90.80
2018-06-17T21:31:15.002Z,91.20
2018-06-17T21:33:43.165Z,91.20
2018-06-17T21:36:11.617Z,91.40
2018-06-17T21:38:39.861Z,91.60
2018-06-17T21:41:08.136Z,91.60
2018-06-17T21:43:36.532Z,91.50
2018-06-17T21:46:04.688Z,91.70
2018-06-17T21:48:32.863Z,91.80
2018-06-17T21:51:01.074Z,92.10
2018-06-17T21:53:29.351Z,92.00
2018-06-17T21:55:57.555Z,92.10
2018-06-17T21:58:56.416Z,92.30
2018-06-17T22:01:24.667Z,92.10
2018-06-17T22:03:52.914Z,92.10
2018-06-17T22:06:21.071Z,92.20
2018-06-17T22:08:54.477Z,92.30
2018-06-17T22:11:28.089Z,92.40
2018-06-17T22:16:08.457Z,92.50
2018-06-17T22:18:36.748Z,92.60
2018-06-17T22:21:05.354Z,93.10
2018-06-17T22:23:34.002Z,92.90
2018-06-17T22:26:02.252Z,93.00
2018-06-17T22:28:30.420Z,93.10
2018-06-17T22:30:58.582Z,93.10
2018-06-17T22:33:26.736Z,93.10
2018-06-17T22:35:55.073Z,93.10
2018-06-17T22:38:23.300Z,93.20
2018-06-17T22:40:51.473Z,93.20
2018-06-17T22:43:19.686Z,93.20
2018-06-17T22:45:47.844Z,93.20
2018-06-17T22:48:16.022Z,93.40
2018-06-17T22:50:44.377Z,93.50
2018-06-17T22:53:24.052Z,93.60
2018-06-17T22:55:52.218Z,93.50
2018-06-17T22:58:25.969Z,93.60
2018-06-17T23:00:59.713Z,93.80
2018-06-17T23:03:33.439Z,93.70
2018-06-17T23:06:07.645Z,93.80
2018-06-17T23:08:41.300Z,93.80
2018-06-17T23:11:09.477Z,93.80
2018-06-17T23:13:37.646Z,94.00
2018-06-17T23:16:05.827Z,93.90
2018-06-17T23:18:33.988Z,93.90
2018-06-17T23:21:02.162Z,93.90
2018-06-17T23:23:30.322Z,94.00
2018-06-17T23:25:58.481Z,94.10
2018-06-17T23:28:26.720Z,94.10
2018-06-17T23:30:54.955Z,94.10
2018-06-17T23:33:23.206Z,94.10
2018-06-17T23:35:51.364Z,94.10
2018-06-17T23:38:19.566Z,94.20
2018-06-17T23:40:47.785Z,94.20
2018-06-17T23:43:15.988Z,94.20
2018-06-17T23:45:49.628Z,94.60
2018-06-17T23:48:23.284Z,94.20
2018-06-17T23:50:56.981Z,94.20
2018-06-17T23:53:30.517Z,94.20
2018-06-17T23:56:04.236Z,94.30
2018-06-17T23:58:33.024Z,94.30
